Time;durP1;ratioP1;P1;durP2;ratioP2;P2;SDS_P1;SDS_P2;PMS_P1;PMS_P2;Temp;Humidity;BMP_temperature;BMP_pressure;BME280_temperature;BME280_humidity;BME280_pressure;Samples;Min_cycle;Max_cycle;Signal;HPM_P1;HPM_P2
2023/06/15 00:00:25;;;;;;;4.27;2.30;;;;;;;-145.18;100.00;47082.34;5014439;28;20057;-58
2023/06/15 00:02:51;;;;;;;2.60;2.10;;;;;;;-145.18;100.00;47086.25;5014655;28;20034;-59
2023/06/15 00:05:16;;;;;;;3.50;1.90;;;;;;;-145.18;100.00;47109.69;5016008;28;20040;-58
2023/06/15 00:07:42;;;;;;;2.43;2.00;;;;;;;-145.18;100.00;47088.19;5014150;28;20395;-58
2023/06/15 00:10:09;;;;;;;3.53;2.20;;;;;;;-145.18;100.00;47097.97;5013539;28;20085;-59
2023/06/15 00:12:34;;;;;;;2.60;2.00;;;;;;;-145.18;100.00;47084.28;5014671;28;20117;-59
2023/06/15 00:15:00;;;;;;;7.17;2.40;;;;;;;-145.18;100.00;47080.38;5012563;28;20025;-58
2023/06/15 00:17:26;;;;;;;6.57;2.00;;;;;;;-145.18;100.00;47097.97;5015739;28;20430;-58
2023/06/15 00:19:53;;;;;;;3.73;2.40;;;;;;;-145.18;100.00;47092.09;4996518;28;20030;-58
2023/06/15 00:22:19;;;;;;;6.47;2.00;;;;;;;-145.18;100.00;47103.81;5014186;28;20061;-59
2023/06/15 00:24:44;;;;;;;2.80;1.87;;;;;;;-145.18;100.00;47109.69;5016702;28;20068;-58
2023/06/15 00:27:10;;;;;;;4.57;2.10;;;;;;;-145.18;100.00;47111.66;5014198;28;20044;-59
2023/06/15 00:29:36;;;;;;;4.20;2.20;;;;;;;-145.18;100.00;47107.72;5011468;28;20038;-59
2023/06/15 00:32:04;;;;;;;3.60;2.33;;;;;;;-145.18;100.00;47094.06;5014162;28;20049;-59
2023/06/15 00:34:30;;;;;;;3.73;2.20;;;;;;;-145.18;100.00;47101.88;5013733;28;20048;-58
2023/06/15 00:36:55;;;;;;;6.00;2.27;;;;;;;-145.18;100.00;47119.47;5016688;28;20153;-58
2023/06/15 00:39:21;;;;;;;2.77;2.00;;;;;;;-145.18;100.00;47107.72;5013425;28;20030;-58
2023/06/15 00:41:46;;;;;;;3.43;2.40;;;;;;;-145.18;100.00;47109.69;5013566;28;20098;-58
2023/06/15 00:44:11;;;;;;;3.53;2.40;;;;;;;-145.18;100.00;47115.56;4997559;28;20033;-59
2023/06/15 00:46:38;;;;;;;4.00;1.83;;;;;;;-145.18;100.00;47097.97;5013370;28;20129;-58
2023/06/15 00:49:04;;;;;;;3.53;2.03;;;;;;;-145.18;100.00;47123.38;5013634;28;20083;-58
2023/06/15 00:51:31;;;;;;;3.10;1.97;;;;;;;-145.18;100.00;47105.78;5017072;28;20029;-58
2023/06/15 00:53:58;;;;;;;4.00;2.10;;;;;;;-145.18;100.00;47119.47;5017377;28;20038;-59
2023/06/15 00:56:23;;;;;;;2.30;1.70;;;;;;;-145.18;100.00;47123.38;5015560;28;20037;-59
2023/06/15 00:58:49;;;;;;;3.40;2.37;;;;;;;-145.18;100.00;47107.72;5013750;28;20163;-57
2023/06/15 01:01:15;;;;;;;2.80;2.07;;;;;;;-145.18;100.00;47113.59;5013643;28;20037;-58
2023/06/15 01:03:44;;;;;;;7.40;2.10;;;;;;;-145.18;100.00;47127.28;5013634;28;20509;-59
2023/06/15 01:06:16;;;;;;;3.17;2.07;;;;;;;-145.18;100.00;47117.50;5013474;28;20398;-59
2023/06/15 01:08:45;;;;;;;2.43;1.90;;;;;;;-145.18;100.00;47103.81;4982988;28;20064;-59
2023/06/15 01:11:12;;;;;;;2.57;2.03;;;;;;;-145.18;100.00;47127.28;5014227;28;20058;-58
2023/06/15 01:13:38;;;;;;;2.20;1.80;;;;;;;-145.18;100.00;47119.47;4996625;28;20041;-58
2023/06/15 01:16:27;;;;;;;3.70;2.27;;;;;;;-145.18;100.00;47117.50;5013196;28;20529;-59
2023/06/15 01:18:57;;;;;;;2.93;2.23;;;;;;;-145.18;100.00;47117.50;5013273;28;20033;-58
2023/06/15 01:21:28;;;;;;;2.93;2.30;;;;;;;-145.18;100.00;47125.31;5013429;28;20036;-58
2023/06/15 01:24:20;;;;;;;4.63;2.50;;;;;;;-145.18;100.00;47123.38;5013249;28;20040;-59
2023/06/15 01:26:49;;;;;;;2.87;2.50;;;;;;;-145.18;100.00;47121.41;5013180;28;20391;-59
2023/06/15 01:29:17;;;;;;;3.03;2.27;;;;;;;-145.18;100.00;47121.41;5013745;28;20036;-58
2023/06/15 01:31:43;;;;;;;5.27;2.30;;;;;;;-145.18;100.00;47115.56;5014496;28;20167;-58
2023/06/15 01:34:09;;;;;;;3.90;2.70;;;;;;;-145.18;100.00;47133.13;5013663;28;20499;-58
2023/06/15 01:36:36;;;;;;;5.77;3.10;;;;;;;-145.18;100.00;47123.38;5013625;28;20471;-58
2023/06/15 01:39:01;;;;;;;3.97;2.97;;;;;;;-145.18;100.00;47133.13;4995430;28;20125;-58
2023/06/15 01:41:27;;;;;;;5.70;3.00;;;;;;;-145.18;100.00;47137.03;5013178;28;20116;-58
2023/06/15 01:43:54;;;;;;;3.97;2.83;;;;;;;-145.18;100.00;47140.94;5012816;28;20026;-58
2023/06/15 01:46:22;;;;;;;5.17;3.13;;;;;;;-145.18;100.00;47139.00;5012469;28;20037;-58
2023/06/15 01:48:48;;;;;;;3.67;2.87;;;;;;;-145.18;100.00;47135.09;5015486;28;20115;-59
2023/06/15 01:51:16;;;;;;;4.97;3.20;;;;;;;-145.18;100.00;47152.66;5011936;28;20112;-58
2023/06/15 01:53:42;;;;;;;4.07;3.13;;;;;;;-145.18;100.00;47174.16;5014239;28;20108;-59
2023/06/15 01:56:07;;;;;;;4.77;3.33;;;;;;;-145.18;100.00;47178.06;5013620;28;20500;-58
2023/06/15 01:58:32;;;;;;;4.73;3.57;;;;;;;-145.18;100.00;47201.50;5012277;28;20569;-59
2023/06/15 02:00:58;;;;;;;3.93;3.17;;;;;;;-145.18;100.00;47187.84;4994220;28;20034;-59
2023/06/15 02:03:23;;;;;;;5.53;3.10;;;;;;;-145.18;100.00;47195.66;5012598;28;20168;-58
2023/06/15 02:05:49;;;;;;;6.30;3.37;;;;;;;-145.18;100.00;47187.84;5012257;28;20026;-58
2023/06/15 02:08:14;;;;;;;7.33;3.60;;;;;;;-145.18;100.00;47211.28;5013941;28;20026;-58
2023/06/15 02:10:40;;;;;;;4.93;3.37;;;;;;;-145.18;100.00;47217.13;5011583;28;20397;-59
2023/06/15 02:13:11;;;;;;;5.93;3.53;;;;;;;-145.18;100.00;47207.38;5012769;28;20038;-59
2023/06/15 02:15:36;;;;;;;6.40;3.60;;;;;;;-145.18;100.00;47160.47;5012166;28;20040;-59
2023/06/15 02:18:07;;;;;;;4.93;3.57;;;;;;;-145.18;100.00;47156.56;5012196;28;20038;-58
2023/06/15 02:20:33;;;;;;;6.30;4.17;;;;;;;-145.18;100.00;47088.19;5008844;28;20147;-59
2023/06/15 02:22:59;;;;;;;4.70;3.50;;;;;;;-145.18;100.00;47013.97;5012167;28;20045;-59
2023/06/15 02:25:25;;;;;;;11.00;4.03;;;;;;;-145.18;100.00;46914.34;5014496;28;20088;-59
2023/06/15 02:27:51;;;;;;;5.73;3.77;;;;;;;-145.18;100.00;46787.38;4994304;28;20448;-59
2023/06/15 02:30:17;;;;;;;7.53;3.83;;;;;;;-145.18;100.00;46734.63;5012049;28;20493;-58
2023/06/15 02:32:42;;;;;;;5.90;3.80;;;;;;;-145.18;100.00;46672.13;5012069;28;20049;-58
2023/06/15 02:35:11;;;;;;;4.57;3.60;;;;;;;-145.18;100.00;46631.09;5011821;28;20727;-59
2023/06/15 02:37:40;;;;;;;8.90;4.03;;;;;;;-145.18;100.00;46566.63;5009170;28;20033;-58
2023/06/15 02:40:08;;;;;;;6.77;3.70;;;;;;;-145.18;100.00;46570.53;5011368;28;20539;-59
2023/06/15 02:42:35;;;;;;;5.43;3.93;;;;;;;-145.18;100.00;46537.34;5011679;28;20030;-58
2023/06/15 02:45:02;;;;;;;9.33;4.63;;;;;;;-145.18;100.00;46558.81;5011542;28;20030;-58
2023/06/15 02:47:28;;;;;;;6.83;3.73;;;;;;;-145.18;100.00;46547.09;5009760;28;20149;-58
2023/06/15 02:49:54;;;;;;;7.73;4.63;;;;;;;-145.18;100.00;46562.72;5011918;28;20361;-58
2023/06/15 02:52:20;;;;;;;5.97;3.90;;;;;;;-145.18;100.00;46547.09;5013716;28;20537;-58
2023/06/15 02:54:46;;;;;;;7.57;4.33;;;;;;;-145.18;100.00;46531.47;5010798;28;20033;-58
2023/06/15 02:57:11;;;;;;;5.97;4.40;;;;;;;-145.18;100.00;46539.28;5010588;28;20029;-58
2023/06/15 02:59:37;;;;;;;7.10;4.37;;;;;;;-145.18;100.00;46541.25;5010940;28;20033;-59
2023/06/15 03:02:06;;;;;;;5.67;4.17;;;;;;;-145.18;100.00;46543.19;5012609;28;20065;-58
2023/06/15 03:04:32;;;;;;;5.10;4.00;;;;;;;-145.18;100.00;46521.72;5011088;28;20057;-59
2023/06/15 03:06:59;;;;;;;6.23;4.10;;;;;;;-145.18;100.00;46551.00;5011283;28;20109;-58
2023/06/15 03:09:25;;;;;;;9.17;4.60;;;;;;;-145.18;100.00;46558.81;5011997;28;20050;-58
2023/06/15 03:11:50;;;;;;;5.70;4.50;;;;;;;-145.18;100.00;46545.16;5011402;28;20056;-59
2023/06/15 03:14:19;;;;;;;8.90;4.77;;;;;;;-145.18;100.00;46531.47;5011316;28;20111;-58
2023/06/15 03:16:48;;;;;;;7.63;4.43;;;;;;;-145.18;100.00;46521.72;5010881;28;20596;-58
2023/06/15 03:19:17;;;;;;;6.60;3.83;;;;;;;-145.18;100.00;46510.00;5013038;28;20033;-59
2023/06/15 03:21:49;;;;;;;7.67;5.13;;;;;;;-145.18;100.00;46513.91;5014369;28;20049;-58
2023/06/15 03:24:16;;;;;;;11.87;4.73;;;;;;;-145.18;100.00;46521.72;5016529;28;20364;-59
2023/06/15 03:26:43;;;;;;;5.50;4.50;;;;;;;-145.18;100.00;46521.72;5014768;28;20025;-58
2023/06/15 03:29:08;;;;;;;11.73;4.73;;;;;;;-145.18;100.00;46498.28;5016803;28;20484;-59
2023/06/15 03:31:40;;;;;;;10.53;4.13;;;;;;;-145.18;100.00;46511.94;5014544;28;20061;-59
2023/06/15 03:34:07;;;;;;;8.03;4.37;;;;;;;-145.18;100.00;46510.00;5013152;28;20037;-58
2023/06/15 03:36:32;;;;;;;7.37;4.20;;;;;;;-145.18;100.00;46525.63;5014492;28;20392;-58
2023/06/15 03:38:58;;;;;;;5.70;4.10;;;;;;;-145.18;100.00;46510.00;5014526;28;20034;-59
2023/06/15 03:41:26;;;;;;;6.67;4.17;;;;;;;-145.18;100.00;46511.94;5016380;28;20018;-58
2023/06/15 03:43:52;;;;;;;6.87;4.83;;;;;;;-145.18;100.00;46506.09;5014825;28;20069;-58
2023/06/15 03:46:17;;;;;;;7.80;3.93;;;;;;;-145.18;100.00;46504.13;5014739;28;20038;-59
2023/06/15 03:48:43;;;;;;;6.53;4.33;;;;;;;-145.18;100.00;46508.03;5019493;28;20561;-58
2023/06/15 03:51:08;;;;;;;10.13;4.10;;;;;;;-145.18;100.00;46508.03;5014477;28;20057;-59
2023/06/15 03:53:33;;;;;;;6.80;4.50;;;;;;;-145.18;100.00;46502.19;5014584;28;20109;-58
2023/06/15 03:55:59;;;;;;;5.77;4.10;;;;;;;-145.18;100.00;46502.19;4996708;28;20439;-59
2023/06/15 03:58:27;;;;;;;6.40;4.40;;;;;;;-145.18;100.00;46504.13;4995103;28;20024;-61
2023/06/15 04:00:53;;;;;;;7.13;4.10;;;;;;;-145.18;100.00;46506.09;4998580;28;20030;-61
2023/06/15 04:03:19;;;;;;;6.03;4.20;;;;;;;-145.18;100.00;46511.94;5010224;28;20040;-61
2023/06/15 04:05:44;;;;;;;7.70;4.73;;;;;;;-145.18;100.00;46496.31;5013915;28;20033;-61
2023/06/15 04:08:10;;;;;;;8.30;4.77;;;;;;;-145.18;100.00;46508.03;5013555;28;20026;-61
2023/06/15 04:10:36;;;;;;;7.37;4.70;;;;;;;-145.18;100.00;46502.19;5013726;28;20046;-60
2023/06/15 04:13:01;;;;;;;5.90;4.63;;;;;;;-145.18;100.00;46511.94;5014089;28;20072;-61
2023/06/15 04:15:27;;;;;;;10.57;5.03;;;;;;;-145.18;100.00;46502.19;4996424;28;20084;-61
2023/06/15 04:17:52;;;;;;;12.63;4.73;;;;;;;-145.18;100.00;46510.00;5013345;28;20026;-61
2023/06/15 04:20:17;;;;;;;6.30;4.70;;;;;;;-145.18;100.00;46504.13;5012966;28;20038;-61
2023/06/15 04:22:43;;;;;;;9.40;5.67;;;;;;;-145.18;100.00;46513.91;5013507;28;20040;-61
2023/06/15 04:25:08;;;;;;;7.17;4.30;;;;;;;-145.18;100.00;46511.94;5014407;28;20089;-61
2023/06/15 04:27:35;;;;;;;6.27;4.90;;;;;;;-145.18;100.00;46504.13;4995678;28;20073;-60
2023/06/15 04:30:01;;;;;;;5.53;4.83;;;;;;;-145.18;100.00;46504.13;5013619;28;20030;-61
2023/06/15 04:32:30;;;;;;;7.47;5.00;;;;;;;-145.18;100.00;46511.94;5012600;28;20432;-61
2023/06/15 04:34:56;;;;;;;7.13;5.00;;;;;;;-145.18;100.00;46508.03;5013089;28;20105;-61
2023/06/15 04:37:23;;;;;;;8.60;5.30;;;;;;;-145.18;100.00;46502.19;5013383;28;20505;-61
2023/06/15 04:39:49;;;;;;;8.00;5.53;;;;;;;-145.18;100.00;46504.13;5010817;28;20380;-61
2023/06/15 04:42:17;;;;;;;6.50;4.70;;;;;;;-145.18;100.00;46510.00;5012766;28;20112;-61
2023/06/15 04:44:43;;;;;;;10.67;5.33;;;;;;;-145.18;100.00;46515.84;4997088;28;20036;-61
2023/06/15 04:47:08;;;;;;;6.13;4.80;;;;;;;-145.18;100.00;46504.13;5013121;28;20450;-61
2023/06/15 04:49:34;;;;;;;6.70;5.07;;;;;;;-145.18;100.00;46511.94;5013537;28;20053;-61
2023/06/15 04:51:59;;;;;;;8.87;4.80;;;;;;;-145.18;100.00;46508.03;5012327;28;20050;-61
2023/06/15 04:54:25;;;;;;;6.93;5.37;;;;;;;-145.18;100.00;46506.09;5013017;28;20026;-61
2023/06/15 04:56:50;;;;;;;8.87;5.87;;;;;;;-145.18;100.00;46492.41;5012844;28;20048;-61
2023/06/15 04:59:15;;;;;;;11.30;5.70;;;;;;;-145.18;100.00;46500.22;5012950;28;20398;-61
2023/06/15 05:01:41;;;;;;;7.27;5.03;;;;;;;-145.18;100.00;46504.13;5002138;28;20654;-61
2023/06/15 05:04:06;;;;;;;9.27;5.63;;;;;;;-145.18;100.00;46506.09;4987691;28;20049;-60
2023/06/15 05:06:32;;;;;;;8.27;5.60;;;;;;;-145.18;100.00;46504.13;5008308;28;20033;-60
2023/06/15 05:08:57;;;;;;;6.33;4.90;;;;;;;-145.18;100.00;46506.09;5009235;28;20033;-60
2023/06/15 05:11:22;;;;;;;7.13;5.60;;;;;;;-145.18;100.00;46511.94;5008812;28;20590;-61
2023/06/15 05:13:48;;;;;;;7.43;5.07;;;;;;;-145.18;100.00;46504.13;5009650;28;20049;-60
2023/06/15 05:16:13;;;;;;;10.47;5.80;;;;;;;-145.18;100.00;46496.31;5010190;28;20109;-61
2023/06/15 05:18:39;;;;;;;8.07;5.77;;;;;;;-145.18;100.00;46504.13;5010878;28;20232;-60
2023/06/15 05:21:05;;;;;;;8.87;5.90;;;;;;;-145.18;100.00;46504.13;5008092;28;20053;-60
2023/06/15 05:23:31;;;;;;;9.13;5.57;;;;;;;-145.18;100.00;46508.03;5011012;28;20476;-60
2023/06/15 05:25:58;;;;;;;10.47;6.20;;;;;;;-145.18;100.00;46500.22;5007760;28;20042;-60
2023/06/15 05:28:24;;;;;;;8.43;5.50;;;;;;;-145.18;100.00;46504.13;5009975;28;20061;-60
2023/06/15 05:30:49;;;;;;;12.23;5.73;;;;;;;-145.18;100.00;46498.28;5009529;28;20480;-60
2023/06/15 05:33:15;;;;;;;7.77;5.77;;;;;;;-145.18;100.00;46504.13;4980744;28;20208;-59
2023/06/15 05:35:40;;;;;;;9.63;6.10;;;;;;;-145.18;100.00;46498.28;4993822;28;20131;-60
2023/06/15 05:38:06;;;;;;;9.03;6.00;;;;;;;-145.18;100.00;46498.28;5011467;28;20058;-60
2023/06/15 05:40:31;;;;;;;8.57;6.10;;;;;;;-145.18;100.00;46500.22;5011760;28;20034;-60
2023/06/15 05:42:56;;;;;;;8.07;5.50;;;;;;;-145.18;100.00;46492.41;5010116;28;20073;-61
2023/06/15 05:45:22;;;;;;;12.33;6.40;;;;;;;-145.18;100.00;46496.31;5011209;28;20038;-61
2023/06/15 05:47:48;;;;;;;7.20;5.23;;;;;;;-145.18;100.00;46492.41;5011279;28;20029;-60
2023/06/15 05:50:13;;;;;;;8.23;5.77;;;;;;;-145.18;100.00;46500.22;4995339;28;20120;-60
2023/06/15 05:52:38;;;;;;;9.10;6.20;;;;;;;-145.18;100.00;46496.31;4998341;28;20121;-60
2023/06/15 05:55:04;;;;;;;10.77;5.87;;;;;;;-145.18;100.00;46494.38;5010124;28;20041;-60
2023/06/15 05:57:30;;;;;;;11.00;6.40;;;;;;;-145.18;100.00;46482.66;5012482;28;20034;-60
2023/06/15 05:59:55;;;;;;;8.73;5.90;;;;;;;-145.18;100.00;46496.31;5010769;28;20602;-60
2023/06/15 06:02:21;;;;;;;9.43;6.30;;;;;;;-145.18;100.00;46490.47;5010217;28;20045;-60
2023/06/15 06:04:46;;;;;;;7.80;5.73;;;;;;;-145.18;100.00;46494.38;5011926;28;20117;-61
2023/06/15 06:07:12;;;;;;;8.17;6.40;;;;;;;-145.18;100.00;46492.41;5012998;28;20045;-62
2023/06/15 06:09:37;;;;;;;9.47;6.30;;;;;;;-145.18;100.00;46490.47;5012120;28;20522;-61
2023/06/15 06:12:03;;;;;;;6.93;5.97;;;;;;;-145.18;100.00;46488.50;5012950;28;20045;-61
2023/06/15 06:14:35;;;;;;;8.38;6.28;;;;;;;-145.18;100.00;46500.22;5100441;27;20377;-61
2023/06/15 06:17:00;;;;;;;10.70;6.63;;;;;;;-145.18;100.00;46502.19;5100427;28;20047;-61
2023/06/15 06:19:26;;;;;;;9.80;6.43;;;;;;;-145.18;100.00;46500.22;5089399;28;20083;-61
2023/06/15 06:21:51;;;;;;;7.93;6.13;;;;;;;-145.18;100.00;46498.28;5104293;28;20058;-61
2023/06/15 06:24:16;;;;;;;8.13;6.10;;;;;;;-145.18;100.00;46506.09;5102583;28;20117;-62
2023/06/15 06:26:43;;;;;;;8.77;6.63;;;;;;;-145.18;100.00;46506.09;5090154;28;20563;-61
2023/06/15 06:29:09;;;;;;;8.80;5.80;;;;;;;-145.18;100.00;46488.50;5109499;28;20471;-61
2023/06/15 06:31:35;;;;;;;8.40;6.17;;;;;;;-145.18;100.00;46496.31;5089220;28;20369;-61
2023/06/15 06:34:00;;;;;;;8.73;6.70;;;;;;;-145.18;100.00;46504.13;5071130;28;20082;-61
2023/06/15 06:36:26;;;;;;;11.57;6.47;;;;;;;-145.18;100.00;46519.75;5095169;28;20039;-61
2023/06/15 06:38:52;;;;;;;9.13;6.47;;;;;;;-145.18;100.00;46508.03;5096458;28;20585;-62
2023/06/15 06:41:17;;;;;;;11.90;6.30;;;;;;;-145.18;100.00;46498.28;5108299;28;20036;-61
2023/06/15 06:43:42;;;;;;;9.23;6.50;;;;;;;-145.18;100.00;46478.75;5090768;28;20386;-62
2023/06/15 06:46:08;;;;;;;8.33;5.70;;;;;;;-145.18;100.00;46465.06;5108859;28;20032;-62
2023/06/15 06:48:33;;;;;;;14.23;7.30;;;;;;;-145.18;100.00;46515.84;5090748;28;20056;-61
2023/06/15 06:50:58;;;;;;;8.27;6.30;;;;;;;-145.18;100.00;46492.41;5095249;28;20119;-61
2023/06/15 06:53:24;;;;;;;9.13;6.70;;;;;;;-145.18;100.00;46504.13;5108278;28;20036;-62
2023/06/15 06:55:50;;;;;;;10.73;6.20;;;;;;;-145.18;100.00;46484.59;5107415;28;20059;-61
2023/06/15 06:58:15;;;;;;;8.57;6.47;;;;;;;-145.18;100.00;46502.19;5108080;28;20449;-61
2023/06/15 07:00:41;;;;;;;10.43;7.27;;;;;;;-145.18;100.00;46496.31;5123149;28;20081;-61
2023/06/15 07:03:07;;;;;;;11.03;6.77;;;;;;;-145.18;100.00;46492.41;5107977;28;20031;-62
2023/06/15 07:05:33;;;;;;;12.50;6.47;;;;;;;-145.18;100.00;46564.69;5089018;28;20032;-62
2023/06/15 07:07:59;;;;;;;12.70;7.33;;;;;;;-145.18;100.00;46664.31;5107926;28;20034;-61
2023/06/15 07:10:24;;;;;;;12.67;7.40;;;;;;;-145.18;100.00;46605.69;5088811;28;20118;-61
2023/06/15 07:12:54;;;;;;;9.37;6.40;;;;;;;-145.18;100.00;46847.91;5107570;28;20082;-62
2023/06/15 07:15:20;;;;;;;9.50;7.10;;;;;;;-145.18;100.00;47088.19;5107094;28;20027;-61
2023/06/15 07:17:46;;;;;;;11.93;7.00;;;;;;;-145.18;100.00;46996.38;5095442;28;20020;-62
2023/06/15 07:20:11;;;;;;;12.67;6.97;;;;;;;-145.18;100.00;47103.81;5117525;28;20055;-62
2023/06/15 07:22:36;;;;;;;8.33;6.87;;;;;;;-145.18;100.00;47107.72;5070073;28;20245;-61
2023/06/15 07:25:02;;;;;;;7.43;5.93;;;;;;;-145.18;100.00;47105.78;5099024;28;20036;-62
2023/06/15 07:27:27;;;;;;;8.63;5.77;;;;;;;-145.18;100.00;47076.47;5095048;28;20089;-61
2023/06/15 07:29:53;;;;;;;12.33;6.13;;;;;;;-145.18;100.00;47072.56;5093728;28;20441;-61
2023/06/15 07:32:18;;;;;;;7.93;6.57;;;;;;;-145.18;100.00;47055.00;5094483;28;20032;-62
2023/06/15 07:34:44;;;;;;;9.97;6.40;;;;;;;-145.18;100.00;47058.91;5094535;28;20460;-62
2023/06/15 07:37:10;;;;;;;10.57;7.07;;;;;;;-145.18;100.00;47047.19;5094681;28;20031;-62
2023/06/15 07:39:36;;;;;;;11.53;6.43;;;;;;;-145.18;100.00;47055.00;5075288;28;20036;-62
2023/06/15 07:42:02;;;;;;;9.77;6.77;;;;;;;-145.18;100.00;47027.63;5087289;28;20084;-62
2023/06/15 07:44:28;;;;;;;8.67;5.77;;;;;;;-145.18;100.00;47045.22;5093446;28;20039;-62
2023/06/15 07:46:53;;;;;;;9.03;6.07;;;;;;;-145.18;100.00;47051.09;5094461;28;20028;-61
2023/06/15 07:49:18;;;;;;;11.37;6.00;;;;;;;-145.18;100.00;47031.53;5080397;28;20028;-61
2023/06/15 07:51:45;;;;;;;10.23;5.67;;;;;;;-145.18;100.00;47023.72;5094124;28;20039;-61
2023/06/15 07:54:11;;;;;;;8.87;6.33;;;;;;;-145.18;100.00;47019.81;5093212;28;20407;-61
2023/06/15 07:56:37;;;;;;;17.40;5.90;;;;;;;-145.18;100.00;47025.69;5094087;28;20032;-61
2023/06/15 07:59:02;;;;;;;12.70;5.90;;;;;;;-145.18;100.00;47008.09;5080900;28;20024;-62
2023/06/15 08:01:28;;;;;;;9.33;5.00;;;;;;;-145.18;100.00;47008.09;5093956;28;20043;-61
2023/06/15 08:03:53;;;;;;;7.50;5.10;;;;;;;-145.18;100.00;47012.00;5093888;28;20036;-62
2023/06/15 08:06:18;;;;;;;10.27;5.83;;;;;;;-145.18;100.00;46990.53;5093689;28;20483;-62
2023/06/15 08:08:45;;;;;;;10.70;5.20;;;;;;;-145.18;100.00;46990.53;5103553;28;20036;-62
2023/06/15 08:11:10;;;;;;;6.30;4.77;;;;;;;-145.18;100.00;46992.47;5085959;28;20039;-62
2023/06/15 08:13:37;;;;;;;7.23;4.97;;;;;;;-145.18;100.00;47004.19;5092713;28;20048;-61
2023/06/15 08:16:05;;;;;;;7.97;5.20;;;;;;;-145.18;100.00;46986.63;5093575;28;20047;-62
2023/06/15 08:18:30;;;;;;;10.20;5.47;;;;;;;-145.18;100.00;46976.84;5075725;28;20408;-62
2023/06/15 08:20:55;;;;;;;6.07;4.40;;;;;;;-145.18;100.00;46980.75;5074103;28;20036;-62
2023/06/15 08:23:21;;;;;;;8.23;3.73;;;;;;;-145.18;100.00;46980.75;5073746;28;20361;-62
2023/06/15 08:25:47;;;;;;;10.30;3.30;;;;;;;-145.18;100.00;46971.00;5074083;28;20067;-62
2023/06/15 08:28:13;;;;;;;3.60;3.13;;;;;;;-145.18;100.00;46961.22;5073452;28;20494;-62
2023/06/15 08:30:38;;;;;;;5.93;3.93;;;;;;;-145.18;100.00;46961.22;5073964;28;20041;-62
2023/06/15 08:33:03;;;;;;;6.60;3.83;;;;;;;-145.18;100.00;46965.13;5055481;28;20028;-62
2023/06/15 08:35:29;;;;;;;5.97;3.40;;;;;;;-145.18;100.00;46959.25;5073727;28;20036;-62
2023/06/15 08:37:55;;;;;;;5.87;4.10;;;;;;;-145.18;100.00;46943.63;5072896;28;20029;-59
2023/06/15 08:40:20;;;;;;;6.00;3.33;;;;;;;-145.18;100.00;46971.00;5073811;28;20112;-59
2023/06/15 08:42:46;;;;;;;6.57;3.67;;;;;;;-145.18;100.00;46953.41;5089320;28;20391;-57
2023/06/15 08:45:12;;;;;;;7.83;4.30;;;;;;;-145.18;100.00;46945.59;5073995;28;20039;-58
2023/06/15 08:47:39;;;;;;;4.63;3.40;;;;;;;-145.18;100.00;46953.41;5056154;28;20111;-58
2023/06/15 08:50:06;;;;;;;7.93;3.97;;;;;;;-145.18;100.00;46949.50;5073274;28;20503;-58
2023/06/15 08:52:33;;;;;;;5.87;3.67;;;;;;;-145.18;100.00;46961.22;5073254;28;20029;-59
2023/06/15 08:54:59;;;;;;;7.47;4.20;;;;;;;-145.18;100.00;46937.78;5073422;28;20150;-59
2023/06/15 08:57:25;;;;;;;4.87;3.83;;;;;;;-145.18;100.00;46949.50;5073231;28;20024;-58
2023/06/15 08:59:52;;;;;;;7.83;3.53;;;;;;;-145.18;100.00;46943.63;5073351;28;20024;-59
2023/06/15 09:02:20;;;;;;;5.87;3.73;;;;;;;-145.18;100.00;46931.91;5085570;28;20037;-59
2023/06/15 09:04:48;;;;;;;5.17;3.40;;;;;;;-145.18;100.00;46939.72;5073228;28;20056;-59
2023/06/15 09:07:13;;;;;;;19.40;4.10;;;;;;;-145.18;100.00;46928.00;5078897;28;20073;-59
2023/06/15 09:09:39;;;;;;;7.37;3.10;;;;;;;-145.18;100.00;46929.97;5079981;28;20103;-59
2023/06/15 09:12:17;;;;;;;10.32;3.60;;;;;;;-145.18;100.00;46931.91;5078948;28;20027;-58
2023/06/15 09:14:43;;;;;;;8.50;3.67;;;;;;;-145.18;100.00;46931.91;5077716;28;20072;-59
2023/06/15 09:17:15;;;;;;;5.20;3.92;;;;;;;-145.18;100.00;46933.88;5095857;28;20111;-59
2023/06/15 09:19:40;;;;;;;7.70;3.60;;;;;;;-145.18;100.00;46937.78;5079079;28;20078;-59
2023/06/15 09:22:07;;;;;;;5.40;3.37;;;;;;;-145.18;100.00;46945.59;5108245;28;20499;-59
2023/06/15 09:24:38;;;;;;;7.80;3.30;;;;;;;-145.18;100.00;46931.91;5078926;28;20157;-59
2023/06/15 09:27:15;;;;;;;11.93;3.70;;;;;;;-145.18;100.00;46912.38;5092528;28;20073;-59
2023/06/15 09:29:59;;;;;;;5.38;3.20;;;;;;;-145.18;100.00;46910.44;5088463;28;20048;-59
2023/06/15 09:32:28;;;;;;;6.22;2.97;;;;;;;-145.18;100.00;46914.34;5072202;28;20495;-59
2023/06/15 09:34:58;;;;;;;6.43;2.92;;;;;;;-145.18;100.00;46920.19;5092684;28;20081;-59
2023/06/15 09:37:25;;;;;;;8.60;3.55;;;;;;;-145.18;100.00;46945.59;5078572;28;20027;-59
2023/06/15 09:39:52;;;;;;;5.47;3.90;;;;;;;-145.18;100.00;46916.28;5072099;28;20028;-59
2023/06/15 09:42:18;;;;;;;7.65;3.17;;;;;;;-145.18;100.00;46906.53;5072338;28;20040;-59
2023/06/15 09:44:43;;;;;;;5.97;3.22;;;;;;;-145.18;100.00;46908.47;5061688;28;20031;-59
2023/06/15 09:47:15;;;;;;;6.68;3.22;;;;;;;-145.18;100.00;46898.72;5091970;28;20036;-60
2023/06/15 09:49:44;;;;;;;6.30;3.30;;;;;;;-145.18;94.84;46900.66;5091973;28;20542;-62
2023/06/15 09:52:11;;;;;;;3.70;2.97;;;;;;;-145.18;95.65;46885.03;5077134;28;20036;-63
2023/06/15 09:54:39;;;;;;;4.70;3.15;;;;;;;-145.18;100.00;46894.81;5072550;28;20056;-62
2023/06/15 09:57:04;;;;;;;4.38;3.17;;;;;;;-145.18;100.00;46896.75;5074138;28;20032;-63
2023/06/15 09:59:30;;;;;;;3.92;3.13;;;;;;;-145.18;95.93;46892.84;5083624;28;20085;-62
2023/06/15 10:01:57;;;;;;;6.53;3.30;;;;;;;-145.18;100.00;46887.00;5073851;28;20032;-62
2023/06/15 10:04:30;;;;;;;3.65;3.05;;;;;;;-145.18;100.00;46904.56;5078666;28;20028;-63
2023/06/15 10:07:00;;;;;;;4.50;3.20;;;;;;;-145.18;100.00;46918.25;5074274;28;20036;-62
2023/06/15 10:09:29;;;;;;;4.47;3.10;;;;;;;-145.18;100.00;46912.38;5087093;28;20020;-62
2023/06/15 10:12:07;;;;;;;7.85;3.40;;;;;;;-145.18;100.00;46918.25;5067680;28;20020;-62
2023/06/15 10:14:47;;;;;;;4.38;3.55;;;;;;;-145.18;100.00;46924.09;5074075;28;20058;-62
2023/06/15 10:17:14;;;;;;;5.57;3.35;;;;;;;-145.18;100.00;46935.81;5070683;28;20025;-62
2023/06/15 10:19:43;;;;;;;5.90;3.40;;;;;;;-145.18;100.00;46929.97;5084896;28;20028;-62
2023/06/15 10:22:17;;;;;;;6.40;3.63;;;;;;;-145.18;100.00;46910.44;5071889;28;20435;-62
2023/06/15 10:24:44;;;;;;;4.40;3.38;;;;;;;-145.18;100.00;46926.06;5071448;28;20035;-62
2023/06/15 10:27:11;;;;;;;8.45;3.20;;;;;;;-145.18;100.00;46898.72;5073424;28;20120;-63
2023/06/15 10:29:47;;;;;;;5.10;3.55;;;;;;;-145.18;100.00;46900.66;5073647;28;20055;-63
2023/06/15 10:32:18;;;;;;;8.13;3.25;;;;;;;-145.18;100.00;46885.03;5075828;28;20077;-62
2023/06/15 10:35:15;;;;;;;8.00;3.60;;;;;;;-145.18;100.00;46871.38;5078905;28;20525;-63
2023/06/15 10:38:06;;;;;;;6.78;3.55;;;;;;;-145.18;93.78;46865.50;5071124;28;20514;-62
2023/06/15 10:40:40;;;;;;;6.18;3.55;;;;;;;-145.18;94.30;46859.63;5070790;28;20075;-63
2023/06/15 10:43:05;;;;;;;4.28;3.25;;;;;;;-145.18;82.92;46867.44;5082428;28;20066;-62
2023/06/15 10:45:32;;;;;;;5.57;3.08;;;;;;;-145.18;90.26;46859.63;5070489;28;20040;-63
2023/06/15 10:48:02;;;;;;;5.43;4.10;;;;;;;-145.18;83.48;46871.38;5087569;28;20044;-63
2023/06/15 10:50:38;;;;;;;6.93;3.42;;;;;;;-145.18;76.82;46851.81;5082269;28;20093;-63
2023/06/15 10:53:03;;;;;;;7.40;3.08;;;;;;;-145.18;67.48;46840.09;5079178;28;20073;-60
2023/06/15 10:55:29;;;;;;;6.35;3.30;;;;;;;-145.18;67.41;46830.34;5081701;28;20044;-63
2023/06/15 10:58:14;;;;;;;8.57;3.53;;;;;;;-145.18;77.56;46873.31;5059391;28;20028;-60
2023/06/15 11:01:07;;;;;;;5.57;3.13;;;;;;;-145.18;77.51;46842.06;5082401;28;20032;-59
2023/06/15 11:03:33;;;;;;;7.30;3.65;;;;;;;-145.18;70.99;46840.09;5078521;28;20042;-59
2023/06/15 11:06:02;;;;;;;7.60;3.00;;;;;;;-145.18;73.47;46890.91;5079626;28;20044;-59
2023/06/15 11:08:30;;;;;;;7.05;3.25;;;;;;;-145.18;81.88;46873.31;5085482;28;20040;-60